sensor_id;sensor_type;location;lat;lon;timestamp;temperature;humidity
18153;DHT22;9202;51.578;7.734;2023-04-06T00:04:05;1.30;99.90
18153;DHT22;9202;51.578;7.734;2023-04-06T00:06:08;1.30;99.90
18153;DHT22;9202;51.578;7.734;2023-04-06T00:08:10;1.20;99.90
18153;DHT22;9202;51.578;7.734;2023-04-06T00:10:13;1.20;99.90
18153;DHT22;9202;51.578;7.734;2023-04-06T00:12:16;1.20;99.90
18153;DHT22;9202;51.578;7.734;2023-04-06T00:14:19;1.20;99.90
18153;DHT22;9202;51.578;7.734;2023-04-06T00:16:22;1.10;99.90
18153;DHT22;9202;51.578;7.734;2023-04-06T00:18:26;1.10;99.90
18153;DHT22;9202;51.578;7.734;2023-04-06T00:20:29;1.10;99.90
18153;DHT22;9202;51.578;7.734;2023-04-06T00:22:32;1.10;99.90
18153;DHT22;9202;51.578;7.734;2023-04-06T00:24:35;1.10;99.90
18153;DHT22;9202;51.578;7.734;2023-04-06T00:26:37;1.00;99.90
18153;DHT22;9202;51.578;7.734;2023-04-06T00:28:40;1.00;99.90
18153;DHT22;9202;51.578;7.734;2023-04-06T00:30:43;1.00;99.90
18153;DHT22;9202;51.578;7.734;2023-04-06T00:32:45;0.90;99.90
18153;DHT22;9202;51.578;7.734;2023-04-06T00:34:48;0.90;99.90
18153;DHT22;9202;51.578;7.734;2023-04-06T00:36:51;0.80;99.90
18153;DHT22;9202;51.578;7.734;2023-04-06T00:38:54;0.80;99.90
18153;DHT22;9202;51.578;7.734;2023-04-06T00:40:57;0.80;99.90
18153;DHT22;9202;51.578;7.734;2023-04-06T00:43:00;0.80;99.90
18153;DHT22;9202;51.578;7.734;2023-04-06T00:45:03;0.80;99.90
18153;DHT22;9202;51.578;7.734;2023-04-06T00:47:05;0.80;99.90
18153;DHT22;9202;51.578;7.734;2023-04-06T00:49:08;0.80;99.90
18153;DHT22;9202;51.578;7.734;2023-04-06T00:51:11;0.80;99.90
18153;DHT22;9202;51.578;7.734;2023-04-06T00:53:14;0.80;99.90
18153;DHT22;9202;51.578;7.734;2023-04-06T00:55:17;0.80;99.90
18153;DHT22;9202;51.578;7.734;2023-04-06T00:57:20;0.70;99.90
18153;DHT22;9202;51.578;7.734;2023-04-06T00:59:25;0.70;99.90
18153;DHT22;9202;51.578;7.734;2023-04-06T01:01:29;0.70;99.90
18153;DHT22;9202;51.578;7.734;2023-04-06T01:03:35;0.60;99.90
18153;DHT22;9202;51.578;7.734;2023-04-06T01:05:39;0.60;99.90
18153;DHT22;9202;51.578;7.734;2023-04-06T01:07:45;0.50;99.90
18153;DHT22;9202;51.578;7.734;2023-04-06T01:09:49;0.50;99.90
18153;DHT22;9202;51.578;7.734;2023-04-06T01:11:54;0.50;99.90
18153;DHT22;9202;51.578;7.734;2023-04-06T01:16:18;0.50;99.90
18153;DHT22;9202;51.578;7.734;2023-04-06T01:18:25;0.50;99.90
18153;DHT22;9202;51.578;7.734;2023-04-06T01:20:30;0.50;99.90
18153;DHT22;9202;51.578;7.734;2023-04-06T01:22:34;0.50;99.90
18153;DHT22;9202;51.578;7.734;2023-04-06T01:24:38;0.50;99.90
18153;DHT22;9202;51.578;7.734;2023-04-06T01:26:43;0.50;99.90
18153;DHT22;9202;51.578;7.734;2023-04-06T01:28:46;0.50;99.90
18153;DHT22;9202;51.578;7.734;2023-04-06T01:30:50;0.50;99.90
18153;DHT22;9202;51.578;7.734;2023-04-06T01:32:55;0.50;99.90
18153;DHT22;9202;51.578;7.734;2023-04-06T01:34:59;0.50;99.90
18153;DHT22;9202;51.578;7.734;2023-04-06T01:37:02;0.50;99.90
18153;DHT22;9202;51.578;7.734;2023-04-06T01:39:05;0.50;99.90
18153;DHT22;9202;51.578;7.734;2023-04-06T01:41:10;0.40;99.90
18153;DHT22;9202;51.578;7.734;2023-04-06T01:43:15;0.40;99.90
18153;DHT22;9202;51.578;7.734;2023-04-06T01:45:19;0.40;99.90
18153;DHT22;9202;51.578;7.734;2023-04-06T01:47:22;0.40;99.90
18153;DHT22;9202;51.578;7.734;2023-04-06T01:49:25;0.40;99.90
18153;DHT22;9202;51.578;7.734;2023-04-06T01:51:30;0.40;99.90
18153;DHT22;9202;51.578;7.734;2023-04-06T01:53:35;0.30;99.90
18153;DHT22;9202;51.578;7.734;2023-04-06T01:55:39;0.40;99.90
18153;DHT22;9202;51.578;7.734;2023-04-06T01:57:44;0.30;99.90
18153;DHT22;9202;51.578;7.734;2023-04-06T01:59:48;0.30;99.90
18153;DHT22;9202;51.578;7.734;2023-04-06T02:01:53;0.30;99.90
18153;DHT22;9202;51.578;7.734;2023-04-06T02:03:55;0.20;99.90
18153;DHT22;9202;51.578;7.734;2023-04-06T02:05:58;0.20;99.90
18153;DHT22;9202;51.578;7.734;2023-04-06T02:08:03;0.20;99.90
18153;DHT22;9202;51.578;7.734;2023-04-06T02:10:11;0.20;99.90
18153;DHT22;9202;51.578;7.734;2023-04-06T02:12:14;0.10;99.90
18153;DHT22;9202;51.578;7.734;2023-04-06T02:14:17;0.10;99.90
18153;DHT22;9202;51.578;7.734;2023-04-06T02:16:22;0.10;99.90
18153;DHT22;9202;51.578;7.734;2023-04-06T02:18:25;0.10;99.90
18153;DHT22;9202;51.578;7.734;2023-04-06T02:20:27;0.00;99.90
18153;DHT22;9202;51.578;7.734;2023-04-06T02:22:30;0.00;99.90
18153;DHT22;9202;51.578;7.734;2023-04-06T02:24:34;0.10;99.90
18153;DHT22;9202;51.578;7.734;2023-04-06T02:26:37;0.00;99.90
18153;DHT22;9202;51.578;7.734;2023-04-06T02:28:40;0.00;99.90
18153;DHT22;9202;51.578;7.734;2023-04-06T02:30:42;0.10;99.90
18153;DHT22;9202;51.578;7.734;2023-04-06T02:32:45;0.10;99.90
18153;DHT22;9202;51.578;7.734;2023-04-06T02:34:48;0.00;99.90
18153;DHT22;9202;51.578;7.734;2023-04-06T02:36:51;0.00;99.90
18153;DHT22;9202;51.578;7.734;2023-04-06T02:38:54;0.00;99.90
18153;DHT22;9202;51.578;7.734;2023-04-06T02:40:57;0.00;99.90
18153;DHT22;9202;51.578;7.734;2023-04-06T02:43:01;0.00;99.90
18153;DHT22;9202;51.578;7.734;2023-04-06T02:45:06;-0.10;99.90
18153;DHT22;9202;51.578;7.734;2023-04-06T02:47:11;-0.10;99.90
18153;DHT22;9202;51.578;7.734;2023-04-06T02:49:14;-0.10;99.90
18153;DHT22;9202;51.578;7.734;2023-04-06T02:51:17;-0.10;99.90
18153;DHT22;9202;51.578;7.734;2023-04-06T02:53:21;-0.20;99.90
18153;DHT22;9202;51.578;7.734;2023-04-06T02:55:24;-0.20;99.90
18153;DHT22;9202;51.578;7.734;2023-04-06T02:57:27;-0.10;99.90
18153;DHT22;9202;51.578;7.734;2023-04-06T02:59:30;-0.10;99.90
18153;DHT22;9202;51.578;7.734;2023-04-06T03:01:34;-0.10;99.90
18153;DHT22;9202;51.578;7.734;2023-04-06T03:03:39;-0.10;99.90
18153;DHT22;9202;51.578;7.734;2023-04-06T03:05:43;-0.10;99.90
18153;DHT22;9202;51.578;7.734;2023-04-06T03:07:47;-0.10;99.90
18153;DHT22;9202;51.578;7.734;2023-04-06T03:09:51;-0.10;99.90
18153;DHT22;9202;51.578;7.734;2023-04-06T03:11:54;-0.10;99.90
18153;DHT22;9202;51.578;7.734;2023-04-06T03:13:57;-0.10;99.90
18153;DHT22;9202;51.578;7.734;2023-04-06T03:16:01;-0.20;99.90
18153;DHT22;9202;51.578;7.734;2023-04-06T03:18:04;-0.10;99.90
18153;DHT22;9202;51.578;7.734;2023-04-06T03:20:09;-0.20;99.90
18153;DHT22;9202;51.578;7.734;2023-04-06T03:22:12;-0.20;99.90
18153;DHT22;9202;51.578;7.734;2023-04-06T03:24:15;-0.20;99.90
18153;DHT22;9202;51.578;7.734;2023-04-06T03:26:17;-0.20;99.90
18153;DHT22;9202;51.578;7.734;2023-04-06T03:28:20;-0.20;99.90
18153;DHT22;9202;51.578;7.734;2023-04-06T03:30:25;-0.20;99.90
18153;DHT22;9202;51.578;7.734;2023-04-06T03:32:28;-0.20;99.90
18153;DHT22;9202;51.578;7.734;2023-04-06T03:34:31;-0.20;99.90
18153;DHT22;9202;51.578;7.734;2023-04-06T03:36:34;-0.30;99.90
18153;DHT22;9202;51.578;7.734;2023-04-06T03:38:38;-0.30;99.90
18153;DHT22;9202;51.578;7.734;2023-04-06T03:40:44;-0.30;99.90
18153;DHT22;9202;51.578;7.734;2023-04-06T03:42:47;-0.30;99.90
18153;DHT22;9202;51.578;7.734;2023-04-06T03:44:50;-0.30;99.90
18153;DHT22;9202;51.578;7.734;2023-04-06T03:46:53;-0.30;99.90
18153;DHT22;9202;51.578;7.734;2023-04-06T03:48:56;-0.30;99.90
18153;DHT22;9202;51.578;7.734;2023-04-06T03:50:59;-0.40;99.90
18153;DHT22;9202;51.578;7.734;2023-04-06T03:53:02;-0.40;99.90
18153;DHT22;9202;51.578;7.734;2023-04-06T03:55:06;-0.40;99.90
18153;DHT22;9202;51.578;7.734;2023-04-06T03:57:11;-0.40;99.90
18153;DHT22;9202;51.578;7.734;2023-04-06T03:59:13;-0.40;99.90
18153;DHT22;9202;51.578;7.734;2023-04-06T04:01:17;-0.40;99.90
18153;DHT22;9202;51.578;7.734;2023-04-06T04:03:20;-0.40;99.90
18153;DHT22;9202;51.578;7.734;2023-04-06T04:05:23;-0.40;99.90
18153;DHT22;9202;51.578;7.734;2023-04-06T04:07:27;-0.40;99.90
18153;DHT22;9202;51.578;7.734;2023-04-06T04:09:30;-0.30;99.90
18153;DHT22;9202;51.578;7.734;2023-04-06T04:11:32;-0.30;99.90
18153;DHT22;9202;51.578;7.734;2023-04-06T04:13:35;-0.30;99.90
18153;DHT22;9202;51.578;7.734;2023-04-06T04:15:39;-0.40;99.90
18153;DHT22;9202;51.578;7.734;2023-04-06T04:17:41;-0.30;99.90
18153;DHT22;9202;51.578;7.734;2023-04-06T04:19:46;-0.30;99.90
18153;DHT22;9202;51.578;7.734;2023-04-06T04:21:49;-0.20;99.90
18153;DHT22;9202;51.578;7.734;2023-04-06T04:23:54;-0.20;99.90
18153;DHT22;9202;51.578;7.734;2023-04-06T04:25:57;-0.20;99.90
18153;DHT22;9202;51.578;7.734;2023-04-06T04:27:59;-0.20;99.90
18153;DHT22;9202;51.578;7.734;2023-04-06T04:30:03;-0.20;99.90
18153;DHT22;9202;51.578;7.734;2023-04-06T04:32:05;-0.30;99.90
18153;DHT22;9202;51.578;7.734;2023-04-06T04:34:08;-0.30;99.90
18153;DHT22;9202;51.578;7.734;2023-04-06T04:36:11;-0.40;99.90
18153;DHT22;9202;51.578;7.734;2023-04-06T04:38:15;-0.30;99.90
18153;DHT22;9202;51.578;7.734;2023-04-06T04:40:18;-0.40;99.90
18153;DHT22;9202;51.578;7.734;2023-04-06T04:42:23;-0.40;99.90
18153;DHT22;9202;51.578;7.734;2023-04-06T04:44:27;-0.40;99.90
18153;DHT22;9202;51.578;7.734;2023-04-06T04:46:30;-0.50;99.90
18153;DHT22;9202;51.578;7.734;2023-04-06T04:48:34;-0.50;99.90
18153;DHT22;9202;51.578;7.734;2023-04-06T04:50:37;-0.50;99.90
18153;DHT22;9202;51.578;7.734;2023-04-06T04:52:40;-0.50;99.90
18153;DHT22;9202;51.578;7.734;2023-04-06T04:54:45;-0.50;99.90
18153;DHT22;9202;51.578;7.734;2023-04-06T04:56:50;-0.50;99.90
18153;DHT22;9202;51.578;7.734;2023-04-06T04:58:55;-0.40;99.90
18153;DHT22;9202;51.578;7.734;2023-04-06T05:00:58;-0.40;99.90
18153;DHT22;9202;51.578;7.734;2023-04-06T05:03:01;-0.40;99.90
18153;DHT22;9202;51.578;7.734;2023-04-06T05:05:07;-0.40;99.90
18153;DHT22;9202;51.578;7.734;2023-04-06T05:07:10;-0.30;99.90
18153;DHT22;9202;51.578;7.734;2023-04-06T05:09:15;-0.30;99.90
18153;DHT22;9202;51.578;7.734;2023-04-06T05:11:18;-0.30;99.90
18153;DHT22;9202;51.578;7.734;2023-04-06T05:15:39;-0.30;99.90
18153;DHT22;9202;51.578;7.734;2023-04-06T05:17:43;-0.30;99.90
18153;DHT22;9202;51.578;7.734;2023-04-06T05:19:48;-0.30;99.90
18153;DHT22;9202;51.578;7.734;2023-04-06T05:21:53;-0.30;99.90
18153;DHT22;9202;51.578;7.734;2023-04-06T05:23:56;-0.20;99.90
18153;DHT22;9202;51.578;7.734;2023-04-06T05:25:59;-0.20;99.90
18153;DHT22;9202;51.578;7.734;2023-04-06T05:28:02;-0.20;99.90
18153;DHT22;9202;51.578;7.734;2023-04-06T05:30:07;-0.20;99.90
18153;DHT22;9202;51.578;7.734;2023-04-06T05:32:12;-0.10;99.90
18153;DHT22;9202;51.578;7.734;2023-04-06T05:34:15;0.00;99.90
18153;DHT22;9202;51.578;7.734;2023-04-06T05:36:18;0.00;99.90
18153;DHT22;9202;51.578;7.734;2023-04-06T05:38:21;0.20;99.90
18153;DHT22;9202;51.578;7.734;2023-04-06T05:40:24;0.30;99.90
18153;DHT22;9202;51.578;7.734;2023-04-06T05:42:27;0.40;99.90
18153;DHT22;9202;51.578;7.734;2023-04-06T05:44:32;0.40;99.90
18153;DHT22;9202;51.578;7.734;2023-04-06T05:46:45;0.60;99.90
18153;DHT22;9202;51.578;7.734;2023-04-06T05:48:49;0.60;99.90
18153;DHT22;9202;51.578;7.734;2023-04-06T05:50:54;0.70;99.90
18153;DHT22;9202;51.578;7.734;2023-04-06T05:52:59;0.80;99.90
18153;DHT22;9202;51.578;7.734;2023-04-06T05:55:04;0.90;99.90
18153;DHT22;9202;51.578;7.734;2023-04-06T05:57:08;0.90;99.90
18153;DHT22;9202;51.578;7.734;2023-04-06T05:59:10;0.90;99.90
18153;DHT22;9202;51.578;7.734;2023-04-06T06:01:13;1.00;99.90
18153;DHT22;9202;51.578;7.734;2023-04-06T06:03:18;1.00;99.90
18153;DHT22;9202;51.578;7.734;2023-04-06T06:05:23;0.90;99.90
18153;DHT22;9202;51.578;7.734;2023-04-06T06:07:27;0.90;99.90
18153;DHT22;9202;51.578;7.734;2023-04-06T06:09:33;0.90;99.90
18153;DHT22;9202;51.578;7.734;2023-04-06T06:11:37;1.00;99.90
18153;DHT22;9202;51.578;7.734;2023-04-06T06:13:41;1.00;99.90
18153;DHT22;9202;51.578;7.734;2023-04-06T06:15:44;1.10;99.90
18153;DHT22;9202;51.578;7.734;2023-04-06T06:17:47;1.30;99.90
18153;DHT22;9202;51.578;7.734;2023-04-06T06:19:50;1.30;99.90
18153;DHT22;9202;51.578;7.734;2023-04-06T06:21:53;1.50;99.90
18153;DHT22;9202;51.578;7.734;2023-04-06T06:23:55;1.40;99.90
18153;DHT22;9202;51.578;7.734;2023-04-06T06:25:58;1.50;99.90
18153;DHT22;9202;51.578;7.734;2023-04-06T06:28:03;1.50;99.90
18153;DHT22;9202;51.578;7.734;2023-04-06T06:30:07;1.50;99.90
18153;DHT22;9202;51.578;7.734;2023-04-06T06:32:10;1.50;99.90
18153;DHT22;9202;51.578;7.734;2023-04-06T06:34:13;1.60;99.90
18153;DHT22;9202;51.578;7.734;2023-04-06T06:36:16;2.00;99.90
18153;DHT22;9202;51.578;7.734;2023-04-06T06:38:19;2.30;99.90
18153;DHT22;9202;51.578;7.734;2023-04-06T06:40:24;2.50;99.90
18153;DHT22;9202;51.578;7.734;2023-04-06T06:42:28;2.70;99.90
18153;DHT22;9202;51.578;7.734;2023-04-06T06:44:33;2.90;99.90
18153;DHT22;9202;51.578;7.734;2023-04-06T06:46:36;3.00;99.90
18153;DHT22;9202;51.578;7.734;2023-04-06T06:48:38;3.00;99.90
18153;DHT22;9202;51.578;7.734;2023-04-06T06:50:41;3.00;99.90
18153;DHT22;9202;51.578;7.734;2023-04-06T06:52:44;3.10;99.90
18153;DHT22;9202;51.578;7.734;2023-04-06T06:54:47;3.30;99.90
18153;DHT22;9202;51.578;7.734;2023-04-06T06:56:49;3.50;99.90
18153;DHT22;9202;51.578;7.734;2023-04-06T06:58:52;3.60;99.90
18153;DHT22;9202;51.578;7.734;2023-04-06T07:00:56;3.90;99.90
18153;DHT22;9202;51.578;7.734;2023-04-06T07:03:00;4.10;99.90
18153;DHT22;9202;51.578;7.734;2023-04-06T07:05:03;4.40;99.90
18153;DHT22;9202;51.578;7.734;2023-04-06T07:07:07;4.60;99.90
18153;DHT22;9202;51.578;7.734;2023-04-06T07:09:10;4.70;99.90
18153;DHT22;9202;51.578;7.734;2023-04-06T07:11:13;5.20;99.90
18153;DHT22;9202;51.578;7.734;2023-04-06T07:13:17;5.30;99.90
18153;DHT22;9202;51.578;7.734;2023-04-06T07:15:21;5.60;99.90
18153;DHT22;9202;51.578;7.734;2023-04-06T07:17:27;5.60;99.90
18153;DHT22;9202;51.578;7.734;2023-04-06T07:19:37;5.90;99.90
18153;DHT22;9202;51.578;7.734;2023-04-06T07:22:01;6.20;99.90
18153;DHT22;9202;51.578;7.734;2023-04-06T07:24:07;6.50;99.90
18153;DHT22;9202;51.578;7.734;2023-04-06T07:26:15;6.70;99.90
18153;DHT22;9202;51.578;7.734;2023-04-06T07:28:20;6.80;99.90
18153;DHT22;9202;51.578;7.734;2023-04-06T07:30:23;6.80;99.90
18153;DHT22;9202;51.578;7.734;2023-04-06T07:32:28;6.90;99.90
18153;DHT22;9202;51.578;7.734;2023-04-06T07:34:31;7.30;99.90
18153;DHT22;9202;51.578;7.734;2023-04-06T07:36:35;7.50;99.90
18153;DHT22;9202;51.578;7.734;2023-04-06T07:38:37;7.60;99.90
18153;DHT22;9202;51.578;7.734;2023-04-06T07:40:41;7.80;99.90
18153;DHT22;9202;51.578;7.734;2023-04-06T07:42:43;7.80;99.90
18153;DHT22;9202;51.578;7.734;2023-04-06T07:44:47;8.00;99.90
18153;DHT22;9202;51.578;7.734;2023-04-06T07:46:51;8.10;99.90
18153;DHT22;9202;51.578;7.734;2023-04-06T07:48:55;8.30;99.90
18153;DHT22;9202;51.578;7.734;2023-04-06T07:51:02;8.50;99.90
18153;DHT22;9202;51.578;7.734;2023-04-06T07:53:05;8.50;99.90
18153;DHT22;9202;51.578;7.734;2023-04-06T07:55:08;8.50;99.90
18153;DHT22;9202;51.578;7.734;2023-04-06T07:57:11;8.50;99.90
18153;DHT22;9202;51.578;7.734;2023-04-06T07:59:14;8.70;99.90
18153;DHT22;9202;51.578;7.734;2023-04-06T08:01:17;8.80;99.90
18153;DHT22;9202;51.578;7.734;2023-04-06T08:03:19;8.80;99.90
18153;DHT22;9202;51.578;7.734;2023-04-06T08:05:23;8.80;99.90
18153;DHT22;9202;51.578;7.734;2023-04-06T08:07:26;8.80;99.90
18153;DHT22;9202;51.578;7.734;2023-04-06T08:09:29;8.90;99.90
18153;DHT22;9202;51.578;7.734;2023-04-06T08:11:32;9.10;99.90
18153;DHT22;9202;51.578;7.734;2023-04-06T08:13:34;9.10;99.90
18153;DHT22;9202;51.578;7.734;2023-04-06T08:15:37;9.20;99.90
18153;DHT22;9202;51.578;7.734;2023-04-06T08:17:40;9.40;99.90
18153;DHT22;9202;51.578;7.734;2023-04-06T08:19:43;9.50;99.90
18153;DHT22;9202;51.578;7.734;2023-04-06T08:21:47;9.50;99.90
18153;DHT22;9202;51.578;7.734;2023-04-06T08:23:49;9.60;99.90
18153;DHT22;9202;51.578;7.734;2023-04-06T08:25:52;9.70;99.90
18153;DHT22;9202;51.578;7.734;2023-04-06T08:27:56;9.70;99.90
18153;DHT22;9202;51.578;7.734;2023-04-06T08:29:58;9.80;99.90
18153;DHT22;9202;51.578;7.734;2023-04-06T08:32:01;9.80;99.90
18153;DHT22;9202;51.578;7.734;2023-04-06T08:34:06;10.00;99.90
18153;DHT22;9202;51.578;7.734;2023-04-06T08:36:13;10.00;99.90
18153;DHT22;9202;51.578;7.734;2023-04-06T08:38:16;10.00;99.90
18153;DHT22;9202;51.578;7.734;2023-04-06T08:40:19;10.10;99.90
18153;DHT22;9202;51.578;7.734;2023-04-06T08:42:24;10.00;99.90
18153;DHT22;9202;51.578;7.734;2023-04-06T08:44:28;10.00;99.90
18153;DHT22;9202;51.578;7.734;2023-04-06T08:46:31;11.90;99.90
18153;DHT22;9202;51.578;7.734;2023-04-06T08:48:34;10.20;99.90
18153;DHT22;9202;51.578;7.734;2023-04-06T08:50:38;10.50;99.90
18153;DHT22;9202;51.578;7.734;2023-04-06T08:52:42;10.70;99.90
18153;DHT22;9202;51.578;7.734;2023-04-06T08:54:45;10.90;99.90
18153;DHT22;9202;51.578;7.734;2023-04-06T08:56:48;11.20;99.90
18153;DHT22;9202;51.578;7.734;2023-04-06T09:01:06;11.40;99.90
18153;DHT22;9202;51.578;7.734;2023-04-06T09:03:10;11.60;99.90
18153;DHT22;9202;51.578;7.734;2023-04-06T09:05:15;11.50;99.90
18153;DHT22;9202;51.578;7.734;2023-04-06T09:07:18;11.80;99.90
18153;DHT22;9202;51.578;7.734;2023-04-06T09:09:21;11.60;99.00
18153;DHT22;9202;51.578;7.734;2023-04-06T09:11:26;11.50;98.00
18153;DHT22;9202;51.578;7.734;2023-04-06T09:13:29;11.90;99.60
18153;DHT22;9202;51.578;7.734;2023-04-06T09:15:32;12.20;99.90
18153;DHT22;9202;51.578;7.734;2023-04-06T09:17:35;12.20;98.90
18153;DHT22;9202;51.578;7.734;2023-04-06T09:19:45;12.30;98.50
18153;DHT22;9202;51.578;7.734;2023-04-06T09:21:48;12.40;98.60
18153;DHT22;9202;51.578;7.734;2023-04-06T09:23:58;12.40;98.10
18153;DHT22;9202;51.578;7.734;2023-04-06T09:26:08;12.20;96.50
18153;DHT22;9202;51.578;7.734;2023-04-06T09:28:11;12.00;98.90
18153;DHT22;9202;51.578;7.734;2023-04-06T09:30:15;12.40;97.10
18153;DHT22;9202;51.578;7.734;2023-04-06T09:32:18;12.80;97.30
18153;DHT22;9202;51.578;7.734;2023-04-06T09:34:21;12.80;96.80
18153;DHT22;9202;51.578;7.734;2023-04-06T09:36:31;13.10;97.30
18153;DHT22;9202;51.578;7.734;2023-04-06T09:38:34;13.10;95.00
18153;DHT22;9202;51.578;7.734;2023-04-06T09:40:36;12.80;94.10
18153;DHT22;9202;51.578;7.734;2023-04-06T09:42:44;12.60;95.00
18153;DHT22;9202;51.578;7.734;2023-04-06T09:44:48;12.20;95.90
18153;DHT22;9202;51.578;7.734;2023-04-06T09:46:50;12.90;95.70
18153;DHT22;9202;51.578;7.734;2023-04-06T09:48:57;13.20;95.70
18153;DHT22;9202;51.578;7.734;2023-04-06T09:51:03;13.50;93.30
18153;DHT22;9202;51.578;7.734;2023-04-06T09:53:08;13.70;93.90
18153;DHT22;9202;51.578;7.734;2023-04-06T09:55:11;13.80;93.30
18153;DHT22;9202;51.578;7.734;2023-04-06T09:57:17;14.00;92.80
18153;DHT22;9202;51.578;7.734;2023-04-06T09:59:21;13.40;93.80
18153;DHT22;9202;51.578;7.734;2023-04-06T10:01:25;13.90;94.10
18153;DHT22;9202;51.578;7.734;2023-04-06T10:03:36;13.90;92.70
18153;DHT22;9202;51.578;7.734;2023-04-06T10:05:33;14.40;93.10
18153;DHT22;9202;51.578;7.734;2023-04-06T10:07:37;14.40;91.00
18153;DHT22;9202;51.578;7.734;2023-04-06T10:09:42;14.00;89.20
18153;DHT22;9202;51.578;7.734;2023-04-06T10:11:47;13.70;91.70
18153;DHT22;9202;51.578;7.734;2023-04-06T10:13:50;13.60;89.60
18153;DHT22;9202;51.578;7.734;2023-04-06T10:15:52;14.10;92.90
18153;DHT22;9202;51.578;7.734;2023-04-06T10:17:56;14.30;91.90
18153;DHT22;9202;51.578;7.734;2023-04-06T10:20:00;14.00;90.70
18153;DHT22;9202;51.578;7.734;2023-04-06T10:22:04;13.70;90.70
18153;DHT22;9202;51.578;7.734;2023-04-06T10:24:08;13.40;89.40
18153;DHT22;9202;51.578;7.734;2023-04-06T10:26:13;13.40;91.30
18153;DHT22;9202;51.578;7.734;2023-04-06T10:28:16;13.50;92.20
18153;DHT22;9202;51.578;7.734;2023-04-06T10:30:21;13.10;90.20
18153;DHT22;9202;51.578;7.734;2023-04-06T10:32:31;13.00;90.30
18153;DHT22;9202;51.578;7.734;2023-04-06T10:34:35;13.00;91.10
18153;DHT22;9202;51.578;7.734;2023-04-06T10:36:37;12.90;91.70
18153;DHT22;9202;51.578;7.734;2023-04-06T10:38:41;12.60;90.80
18153;DHT22;9202;51.578;7.734;2023-04-06T10:40:44;12.80;91.40
18153;DHT22;9202;51.578;7.734;2023-04-06T10:42:48;13.00;90.70
18153;DHT22;9202;51.578;7.734;2023-04-06T10:44:51;13.20;90.30
18153;DHT22;9202;51.578;7.734;2023-04-06T10:46:54;13.30;88.60
18153;DHT22;9202;51.578;7.734;2023-04-06T10:48:57;13.00;85.20
18153;DHT22;9202;51.578;7.734;2023-04-06T10:51:02;13.10;85.40
18153;DHT22;9202;51.578;7.734;2023-04-06T10:53:06;13.00;85.50
18153;DHT22;9202;51.578;7.734;2023-04-06T10:55:09;13.10;85.80
18153;DHT22;9202;51.578;7.734;2023-04-06T10:57:27;13.40;87.00
18153;DHT22;9202;51.578;7.734;2023-04-06T10:59:23;13.50;84.90
18153;DHT22;9202;51.578;7.734;2023-04-06T11:01:27;13.20;83.70
18153;DHT22;9202;51.578;7.734;2023-04-06T11:03:30;13.30;85.50
18153;DHT22;9202;51.578;7.734;2023-04-06T11:07:49;13.70;83.70
18153;DHT22;9202;51.578;7.734;2023-04-06T11:09:52;13.80;86.80
18153;DHT22;9202;51.578;7.734;2023-04-06T11:11:57;13.90;87.90
18153;DHT22;9202;51.578;7.734;2023-04-06T11:13:59;13.70;83.70
18153;DHT22;9202;51.578;7.734;2023-04-06T11:16:03;13.40;84.20
18153;DHT22;9202;51.578;7.734;2023-04-06T11:18:06;13.20;83.10
18153;DHT22;9202;51.578;7.734;2023-04-06T11:20:10;13.50;89.60
18153;DHT22;9202;51.578;7.734;2023-04-06T11:22:13;13.80;85.10
18153;DHT22;9202;51.578;7.734;2023-04-06T11:24:16;13.80;84.00
18153;DHT22;9202;51.578;7.734;2023-04-06T11:26:19;13.80;82.70
18153;DHT22;9202;51.578;7.734;2023-04-06T11:28:22;13.80;83.70
18153;DHT22;9202;51.578;7.734;2023-04-06T11:30:25;13.70;82.70
18153;DHT22;9202;51.578;7.734;2023-04-06T11:32:28;13.80;81.70
18153;DHT22;9202;51.578;7.734;2023-04-06T11:34:33;13.90;83.50
18153;DHT22;9202;51.578;7.734;2023-04-06T11:36:40;14.20;84.70
18153;DHT22;9202;51.578;7.734;2023-04-06T11:38:43;14.10;78.90
18153;DHT22;9202;51.578;7.734;2023-04-06T11:40:45;14.10;79.60
18153;DHT22;9202;51.578;7.734;2023-04-06T11:42:52;13.90;80.40
18153;DHT22;9202;51.578;7.734;2023-04-06T11:44:55;13.80;79.80
18153;DHT22;9202;51.578;7.734;2023-04-06T11:46:58;13.60;81.10
18153;DHT22;9202;51.578;7.734;2023-04-06T11:49:02;14.00;85.60
18153;DHT22;9202;51.578;7.734;2023-04-06T11:51:05;14.00;84.30
18153;DHT22;9202;51.578;7.734;2023-04-06T11:53:08;13.80;81.00
18153;DHT22;9202;51.578;7.734;2023-04-06T11:55:12;14.00;83.20
18153;DHT22;9202;51.578;7.734;2023-04-06T11:57:15;13.60;82.70
18153;DHT22;9202;51.578;7.734;2023-04-06T11:59:18;14.00;83.60
18153;DHT22;9202;51.578;7.734;2023-04-06T12:01:21;14.30;83.30
18153;DHT22;9202;51.578;7.734;2023-04-06T12:03:24;14.50;84.10
18153;DHT22;9202;51.578;7.734;2023-04-06T12:05:27;14.30;80.60
18153;DHT22;9202;51.578;7.734;2023-04-06T12:07:30;14.10;80.00
18153;DHT22;9202;51.578;7.734;2023-04-06T12:09:33;14.00;79.40
18153;DHT22;9202;51.578;7.734;2023-04-06T12:11:37;13.90;83.50
18153;DHT22;9202;51.578;7.734;2023-04-06T12:13:40;13.90;82.70
18153;DHT22;9202;51.578;7.734;2023-04-06T12:15:43;14.00;85.30
18153;DHT22;9202;51.578;7.734;2023-04-06T12:17:45;13.90;80.10
18153;DHT22;9202;51.578;7.734;2023-04-06T12:19:48;13.90;81.40
18153;DHT22;9202;51.578;7.734;2023-04-06T12:21:51;14.00;76.20
18153;DHT22;9202;51.578;7.734;2023-04-06T12:23:54;13.80;77.70
18153;DHT22;9202;51.578;7.734;2023-04-06T12:25:57;14.20;79.40
18153;DHT22;9202;51.578;7.734;2023-04-06T12:28:00;14.30;78.90
18153;DHT22;9202;51.578;7.734;2023-04-06T12:30:03;14.30;80.50
18153;DHT22;9202;51.578;7.734;2023-04-06T12:32:06;14.40;78.40
18153;DHT22;9202;51.578;7.734;2023-04-06T12:34:08;14.30;78.90
18153;DHT22;9202;51.578;7.734;2023-04-06T12:36:12;14.40;83.10
18153;DHT22;9202;51.578;7.734;2023-04-06T12:38:15;14.40;77.30
18153;DHT22;9202;51.578;7.734;2023-04-06T12:40:18;14.40;78.40
18153;DHT22;9202;51.578;7.734;2023-04-06T12:42:20;14.50;79.10
18153;DHT22;9202;51.578;7.734;2023-04-06T12:44:23;14.50;80.20
18153;DHT22;9202;51.578;7.734;2023-04-06T12:46:28;14.70;82.60
18153;DHT22;9202;51.578;7.734;2023-04-06T12:48:32;14.80;78.80
18153;DHT22;9202;51.578;7.734;2023-04-06T12:50:35;14.90;82.40
18153;DHT22;9202;51.578;7.734;2023-04-06T12:52:38;15.00;83.70
18153;DHT22;9202;51.578;7.734;2023-04-06T12:54:41;15.00;79.60
18153;DHT22;9202;51.578;7.734;2023-04-06T12:56:44;15.00;82.50
18153;DHT22;9202;51.578;7.734;2023-04-06T12:58:46;14.70;79.90
18153;DHT22;9202;51.578;7.734;2023-04-06T13:00:49;14.80;82.00
18153;DHT22;9202;51.578;7.734;2023-04-06T13:02:52;14.40;79.80
18153;DHT22;9202;51.578;7.734;2023-04-06T13:04:55;14.40;82.30
18153;DHT22;9202;51.578;7.734;2023-04-06T13:06:58;14.40;80.90
18153;DHT22;9202;51.578;7.734;2023-04-06T13:09:00;14.60;82.80
18153;DHT22;9202;51.578;7.734;2023-04-06T13:11:03;14.70;85.10
18153;DHT22;9202;51.578;7.734;2023-04-06T13:13:06;14.40;82.40
18153;DHT22;9202;51.578;7.734;2023-04-06T13:15:10;14.40;86.30
18153;DHT22;9202;51.578;7.734;2023-04-06T13:17:13;14.40;83.40
18153;DHT22;9202;51.578;7.734;2023-04-06T13:19:15;14.50;86.30
18153;DHT22;9202;51.578;7.734;2023-04-06T13:21:18;14.40;85.80
18153;DHT22;9202;51.578;7.734;2023-04-06T13:23:22;14.60;84.40
18153;DHT22;9202;51.578;7.734;2023-04-06T13:25:25;14.10;84.50
18153;DHT22;9202;51.578;7.734;2023-04-06T13:27:28;14.30;86.50
18153;DHT22;9202;51.578;7.734;2023-04-06T13:29:30;14.40;85.80
18153;DHT22;9202;51.578;7.734;2023-04-06T13:31:33;14.10;84.50